< Cyclone 199208 1992 Season Cyclone 199210 >
Cyclone 199209 (NEVILLE)
General InformationTrack Information on Google MapsDetailed Wind InformationList of All Images || ResourceGoogle EarthGE AnimationAtom FeedGeoJSON
Detalied Best Track (Time Zone = UTC)
Year Month Day Hour Lat. Long. Pressure (hPa) Wind (kt) Class Image Chart
1992 4 5 00 -8.6 132.3 998 25 2 Image --
1992 4 5 06 -8.8 132.7 996 30 2 Image --
1992 4 5 12 -9.4 133.0 996 30 2 Image --
1992 4 5 18 -9.6 133.3 995 35 3 Image --
1992 4 6 00 -9.7 133.4 994 40 3 Image --
1992 4 6 06 -9.9 133.4 992 45 3 Image --
1992 4 6 12 -10.1 133.3 992 45 3 Image --
1992 4 6 18 -10.1 133.2 992 45 3 Image --
1992 4 7 00 -10.3 133.0 990 50 4 Image --
1992 4 7 06 -10.7 132.4 988 50 4 Image --
1992 4 7 12 -10.8 131.7 987 55 4 Image --
1992 4 7 18 -11.0 130.9 986 65 5 Image --
1992 4 8 00 -11.2 130.3 975 80 5 Image --
1992 4 8 06 -11.2 129.4 965 85 5 Image --
1992 4 8 12 -11.1 129.1 950 100 5 Image --
1992 4 8 18 -11.2 128.8 945 105 5 Image --
1992 4 9 00 -11.4 128.4 950 110 5 Image --
1992 4 9 06 -11.5 128.4 950 100 5 Image --
1992 4 9 09 -11.5 128.5 952 95 5 Image --
1992 4 9 12 -11.4 128.3 954 95 5 Image --
1992 4 9 18 -11.4 128.1 958 95 5 Image --
1992 4 10 00 -11.5 128.0 960 90 5 Image --
1992 4 10 06 -11.7 127.7 962 90 5 Image --
1992 4 10 12 -11.5 127.3 966 80 5 Image --
1992 4 10 18 -11.7 126.8 970 75 5 Image --
1992 4 11 00 -11.8 126.4 972 70 5 Image --
1992 4 11 06 -11.8 125.9 974 65 5 Image --
1992 4 11 12 -11.8 125.6 976 65 5 Image --
1992 4 11 18 -11.8 125.5 978 65 5 Image --
1992 4 12 00 -11.8 125.4 980 65 5 Image --
1992 4 12 06 -11.8 125.3 982 55 4 Image --
1992 4 12 12 -12.0 125.3 984 50 4 Image --
1992 4 12 18 -12.1 125.3 988 45 3 Image --
1992 4 13 00 -12.4 125.2 994 35 3 Image --
1992 4 13 06 -12.8 124.9 996 30 2 Image --
1992 4 13 12 -12.9 124.8 998 30 2 Image --
1992 4 13 18 -13.1 124.7 998 25 2 Image --
1992 4 14 00 -13.3 124.6 1000 25 2 Image --
1992 4 14 06 -13.5 124.5 1002 25 2 Image --
< Cyclone 199208 1992 Season Cyclone 199210 >

Help